createdAt,value
2019-02-16T00:02:28.230Z,78.30
2019-02-16T00:04:59.645Z,80.03
2019-02-16T00:07:30.957Z,79.37
2019-02-16T00:10:02.219Z,82.27
2019-02-16T00:12:34.614Z,85.00
2019-02-16T00:15:07.833Z,80.90
2019-02-16T00:17:40.214Z,81.47
2019-02-16T00:20:11.613Z,87.67
2019-02-16T00:22:42.894Z,83.93
2019-02-16T00:25:14.516Z,85.70
2019-02-16T00:27:45.860Z,88.83
2019-02-16T00:30:17.125Z,87.90
2019-02-16T00:32:48.533Z,79.83
2019-02-16T00:35:19.821Z,83.37
2019-02-16T00:37:51.140Z,84.73
2019-02-16T00:40:22.408Z,81.50
2019-02-16T00:42:53.720Z,84.10
2019-02-16T00:45:28.161Z,71.30
2019-02-16T00:47:59.474Z,82.20
2019-02-16T00:50:30.752Z,100.47
2019-02-16T00:53:07.181Z,106.40
2019-02-16T00:55:38.457Z,106.63
2019-02-16T00:58:09.883Z,107.90
2019-02-16T01:00:41.142Z,109.33
2019-02-16T01:03:12.443Z,106.13
2019-02-16T01:05:43.883Z,106.57
2019-02-16T01:08:16.510Z,108.50
2019-02-16T01:10:47.775Z,102.07
2019-02-16T01:13:19.177Z,99.67
2019-02-16T01:15:50.461Z,94.53
2019-02-16T01:18:21.791Z,104.73
2019-02-16T01:20:53.068Z,113.37
2019-02-16T01:23:25.787Z,115.93
2019-02-16T01:25:58.279Z,109.53
2019-02-16T01:28:30.801Z,110.27
2019-02-16T01:31:04.229Z,118.17
2019-02-16T01:33:35.489Z,76.70
2019-02-16T01:36:06.809Z,109.20
2019-02-16T01:38:38.126Z,102.77
2019-02-16T01:41:09.390Z,106.57
2019-02-16T01:43:40.704Z,67.80
2019-02-16T01:46:11.993Z,106.83
2019-02-16T01:48:43.330Z,97.77
2019-02-16T01:51:14.647Z,77.30
2019-02-16T01:53:45.970Z,73.47
2019-02-16T01:56:17.217Z,72.83
2019-02-16T01:58:50.205Z,75.10
2019-02-16T02:01:22.530Z,67.60
2019-02-16T02:03:53.771Z,66.60
2019-02-16T02:06:25.050Z,84.07
2019-02-16T02:08:56.349Z,83.90
2019-02-16T02:11:28.646Z,86.00
2019-02-16T02:14:00.842Z,91.57
2019-02-16T02:16:32.092Z,91.77
2019-02-16T02:19:03.414Z,90.77
2019-02-16T02:21:40.887Z,87.70
2019-02-16T02:24:07.570Z,88.83
2019-02-16T02:26:38.838Z,81.67
2019-02-16T02:29:10.270Z,76.67
2019-02-16T02:31:41.578Z,73.40
2019-02-16T02:34:12.970Z,69.37
2019-02-16T02:36:45.802Z,74.23
2019-02-16T02:39:17.219Z,71.60
2019-02-16T02:41:48.505Z,71.80
2019-02-16T02:44:19.810Z,71.83
2019-02-16T02:46:51.379Z,85.87
2019-02-16T02:49:22.898Z,98.00
2019-02-16T02:51:54.178Z,82.30
2019-02-16T02:54:26.169Z,83.60
2019-02-16T02:56:58.910Z,75.27
2019-02-16T02:59:30.324Z,70.77
2019-02-16T03:02:03.073Z,75.33
2019-02-16T03:04:34.411Z,76.80
2019-02-16T03:07:05.837Z,73.50
2019-02-16T03:09:37.082Z,71.60
2019-02-16T03:12:08.350Z,68.23
2019-02-16T03:14:42.471Z,74.20
2019-02-16T03:17:13.855Z,82.17
2019-02-16T03:19:45.148Z,88.70
2019-02-16T03:22:20.576Z,93.37
2019-02-16T03:24:51.903Z,96.10
2019-02-16T03:27:29.171Z,94.50
2019-02-16T03:30:06.368Z,91.90
2019-02-16T03:32:47.267Z,93.00
2019-02-16T03:35:38.889Z,93.77
2019-02-16T03:38:18.545Z,104.33
2019-02-16T03:40:50.150Z,101.87
2019-02-16T03:43:21.443Z,96.77
2019-02-16T03:45:52.758Z,99.13
2019-02-16T03:48:24.139Z,95.83
2019-02-16T03:50:56.160Z,89.60
2019-02-16T03:53:27.962Z,92.13
2019-02-16T03:55:59.309Z,95.60
2019-02-16T03:58:30.582Z,101.50
2019-02-16T04:01:02.947Z,103.20
2019-02-16T04:03:35.523Z,98.30
2019-02-16T04:06:06.842Z,93.40
2019-02-16T04:08:39.327Z,84.10
2019-02-16T04:11:10.649Z,85.13
2019-02-16T04:13:42.009Z,74.23
2019-02-16T04:16:13.517Z,69.97
2019-02-16T04:18:44.982Z,77.90
2019-02-16T04:21:16.450Z,78.10
2019-02-16T04:23:47.618Z,81.73
2019-02-16T04:26:18.944Z,71.43
2019-02-16T04:28:50.238Z,81.90
2019-02-16T04:31:21.548Z,89.90
2019-02-16T04:33:54.214Z,94.33
2019-02-16T04:36:25.527Z,89.77
2019-02-16T04:38:56.899Z,85.47
2019-02-16T04:41:28.323Z,87.47
2019-02-16T04:43:59.655Z,87.03
2019-02-16T04:46:31.068Z,83.37
2019-02-16T04:49:03.752Z,91.07
2019-02-16T04:51:36.355Z,88.70
2019-02-16T04:54:07.670Z,98.87
2019-02-16T04:56:40.982Z,93.93
2019-02-16T04:59:16.693Z,99.27
2019-02-16T05:01:48.118Z,93.07
2019-02-16T05:04:19.402Z,85.10
2019-02-16T05:06:50.682Z,96.20
2019-02-16T05:09:22.081Z,93.80
2019-02-16T05:11:53.487Z,82.90
2019-02-16T05:14:24.777Z,80.07
2019-02-16T05:16:56.275Z,88.50
2019-02-16T05:19:27.655Z,93.57
2019-02-16T05:21:59.027Z,94.27
2019-02-16T05:24:30.261Z,96.00
2019-02-16T05:27:02.082Z,103.13
2019-02-16T05:29:33.497Z,106.13
2019-02-16T05:32:04.851Z,110.23
2019-02-16T05:34:36.209Z,109.10
2019-02-16T05:37:09.514Z,112.60
2019-02-16T05:39:40.922Z,109.77
2019-02-16T05:42:12.343Z,108.00
2019-02-16T05:44:43.653Z,103.23
2019-02-16T05:47:15.081Z,103.00
2019-02-16T05:49:46.459Z,100.73
2019-02-16T05:52:17.796Z,103.40
2019-02-16T05:54:49.171Z,101.63
2019-02-16T05:57:20.611Z,105.20
2019-02-16T05:59:53.419Z,106.83
2019-02-16T06:02:24.752Z,107.27
2019-02-16T06:04:56.048Z,111.77
2019-02-16T06:07:27.343Z,116.47
2019-02-16T06:09:58.686Z,110.33
2019-02-16T06:12:31.045Z,105.47
2019-02-16T06:15:02.399Z,118.93
2019-02-16T06:17:33.760Z,114.87
2019-02-16T06:20:07.130Z,128.33
2019-02-16T06:22:38.537Z,122.67
2019-02-16T06:25:10.037Z,129.47
2019-02-16T06:27:43.461Z,114.57
2019-02-16T06:30:14.746Z,97.50
2019-02-16T06:32:46.159Z,105.30
2019-02-16T06:35:21.770Z,103.23
2019-02-16T06:37:53.199Z,89.70
2019-02-16T06:40:24.482Z,96.10
2019-02-16T06:42:55.825Z,100.40
2019-02-16T06:45:27.214Z,75.83
2019-02-16T06:47:58.509Z,79.47
2019-02-16T06:50:36.743Z,88.63
2019-02-16T06:53:02.868Z,99.90
2019-02-16T06:55:35.698Z,104.70
2019-02-16T06:58:07.118Z,122.70
2019-02-16T07:00:38.409Z,129.00
2019-02-16T07:03:09.926Z,155.30
2019-02-16T07:05:41.444Z,134.70
2019-02-16T07:08:12.742Z,192.17
2019-02-16T07:10:44.106Z,198.13
2019-02-16T07:13:16.107Z,188.93
2019-02-16T07:15:48.959Z,180.83
2019-02-16T07:18:22.755Z,165.73
2019-02-16T07:20:54.063Z,141.17
2019-02-16T07:23:25.476Z,151.43
2019-02-16T07:25:59.909Z,118.07
2019-02-16T07:28:34.914Z,99.77
2019-02-16T07:31:06.719Z,112.07
2019-02-16T07:33:39.429Z,127.50
2019-02-16T07:36:10.725Z,128.67
2019-02-16T07:38:42.291Z,137.13
2019-02-16T07:41:13.573Z,129.03
2019-02-16T07:43:52.111Z,128.07
2019-02-16T07:46:27.674Z,137.60
2019-02-16T07:49:09.902Z,137.67
2019-02-16T07:51:45.628Z,129.13
2019-02-16T07:54:21.178Z,100.67
2019-02-16T07:56:54.041Z,102.80
2019-02-16T07:59:26.951Z,114.57
2019-02-16T08:01:59.794Z,133.50
2019-02-16T08:04:35.230Z,131.47
2019-02-16T08:07:16.772Z,97.33
2019-02-16T08:09:49.606Z,102.37
2019-02-16T08:12:22.939Z,111.27
2019-02-16T08:14:55.918Z,117.07
2019-02-16T08:17:31.459Z,179.40
2019-02-16T08:20:10.331Z,143.43
2019-02-16T08:22:43.251Z,116.60
2019-02-16T08:25:22.369Z,111.97
2019-02-16T08:28:00.972Z,101.53
2019-02-16T08:30:33.922Z,98.77
2019-02-16T08:33:08.156Z,95.43
2019-02-16T08:35:44.064Z,100.00
2019-02-16T08:38:25.906Z,108.23
2019-02-16T08:41:01.737Z,99.27
2019-02-16T08:43:40.712Z,103.67
2019-02-16T08:46:31.483Z,84.30
2019-02-16T08:49:04.407Z,82.03
2019-02-16T08:51:37.294Z,77.60
2019-02-16T08:54:10.306Z,77.03
2019-02-16T08:56:45.778Z,83.03
2019-02-16T08:59:18.627Z,82.73
2019-02-16T09:01:54.180Z,70.10
2019-02-16T09:04:35.575Z,84.47
2019-02-16T09:07:11.188Z,86.33
2019-02-16T09:09:45.427Z,75.80
2019-02-16T09:12:22.884Z,69.07
2019-02-16T09:15:13.803Z,69.73
2019-02-16T09:17:49.834Z,82.60
2019-02-16T09:20:27.247Z,82.37
2019-02-16T09:23:03.570Z,82.13
2019-02-16T09:25:36.804Z,78.03
2019-02-16T09:28:10.705Z,81.30
2019-02-16T09:30:51.465Z,74.00
2019-02-16T09:33:39.189Z,74.57
2019-02-16T09:36:14.027Z,65.70
2019-02-16T09:38:48.549Z,67.20
2019-02-16T09:41:29.723Z,55.73
2019-02-16T09:44:09.198Z,71.20
2019-02-16T09:47:01.079Z,65.47
2019-02-16T09:49:55.478Z,73.77
2019-02-16T09:52:53.149Z,69.20
2019-02-16T09:55:33.773Z,72.80
2019-02-16T09:58:09.698Z,73.57
2019-02-16T10:00:42.698Z,87.77
2019-02-16T10:03:24.341Z,88.20
2019-02-16T10:06:13.478Z,76.33
2019-02-16T10:08:55.247Z,73.83
2019-02-16T10:11:28.223Z,78.90
2019-02-16T10:14:06.957Z,86.63
2019-02-16T10:16:42.710Z,86.17
2019-02-16T10:19:20.046Z,79.40
2019-02-16T10:21:55.312Z,79.67
2019-02-16T10:24:34.208Z,73.80
2019-02-16T10:27:22.158Z,72.40
2019-02-16T10:30:00.742Z,74.40
2019-02-16T10:32:42.818Z,70.90
2019-02-16T10:35:27.609Z,70.63
2019-02-16T10:38:00.590Z,75.47
2019-02-16T10:40:51.354Z,75.77
2019-02-16T10:43:24.207Z,75.60
2019-02-16T10:46:02.839Z,76.53
2019-02-16T10:48:35.636Z,77.70
2019-02-16T10:51:17.316Z,74.00
2019-02-16T10:54:06.274Z,72.50
2019-02-16T10:56:55.243Z,73.90
2019-02-16T10:59:28.109Z,91.47
2019-02-16T11:02:01.030Z,108.57
2019-02-16T11:04:38.483Z,104.30
2019-02-16T11:07:11.567Z,69.50
2019-02-16T11:09:47.142Z,71.20
2019-02-16T11:12:20.051Z,65.20
2019-02-16T11:15:13.193Z,71.90
2019-02-16T11:17:51.914Z,70.80
2019-02-16T11:20:24.777Z,74.10
2019-02-16T11:23:29.223Z,71.17
2019-02-16T11:26:04.930Z,73.00
2019-02-16T11:28:43.707Z,73.60
2019-02-16T11:31:28.511Z,73.83
2019-02-16T11:34:19.751Z,67.37
2019-02-16T11:36:52.610Z,69.70
2019-02-16T11:39:25.432Z,75.93
2019-02-16T11:41:58.369Z,74.33
2019-02-16T11:44:36.978Z,76.53
2019-02-16T11:47:15.914Z,76.00
2019-02-16T11:49:50.899Z,70.53
2019-02-16T11:52:35.372Z,70.30
2019-02-16T11:55:25.163Z,70.40
2019-02-16T11:58:00.742Z,69.77
2019-02-16T12:00:36.213Z,69.10
2019-02-16T12:03:09.051Z,76.93
2019-02-16T12:05:41.901Z,73.43
2019-02-16T12:08:23.776Z,72.40
2019-02-16T12:11:13.209Z,73.00
2019-02-16T12:13:58.358Z,65.83
2019-02-16T12:16:39.690Z,69.87
2019-02-16T12:19:15.474Z,69.57
2019-02-16T12:21:48.371Z,75.53
2019-02-16T12:24:21.318Z,95.63
2019-02-16T12:27:00.383Z,81.87
2019-02-16T12:29:33.559Z,66.33
2019-02-16T12:32:12.532Z,72.30
2019-02-16T12:35:01.976Z,67.97
2019-02-16T12:37:37.632Z,65.87
2019-02-16T12:40:10.629Z,61.50
2019-02-16T12:42:50.602Z,65.47
2019-02-16T12:45:23.571Z,64.03
2019-02-16T12:48:05.754Z,47.88
2019-02-16T12:50:47.607Z,57.35
2019-02-16T12:53:26.260Z,55.77
2019-02-16T12:56:09.042Z,51.33
2019-02-16T12:58:44.902Z,53.60
2019-02-16T13:01:36.845Z,55.43
2019-02-16T13:04:27.819Z,54.27
2019-02-16T13:07:19.135Z,55.80
2019-02-16T13:09:57.971Z,53.70
2019-02-16T13:12:35.409Z,52.85
2019-02-16T13:15:22.923Z,48.20
2019-02-16T13:18:04.675Z,49.88
2019-02-16T13:20:34.979Z,47.20
2019-02-16T13:23:13.363Z,45.90
2019-02-16T13:25:52.768Z,46.02
2019-02-16T13:28:42.850Z,43.68
2019-02-16T13:31:07.656Z,45.15
2019-02-16T13:33:43.319Z,46.23
2019-02-16T13:36:32.295Z,45.08
2019-02-16T13:39:14.211Z,45.43
2019-02-16T13:41:54.204Z,39.90
2019-02-16T13:44:28.548Z,40.20
2019-02-16T13:47:10.446Z,41.05
2019-02-16T13:49:46.402Z,38.83
2019-02-16T13:52:37.615Z,39.78
2019-02-16T13:55:13.479Z,34.88
2019-02-16T13:57:46.293Z,35.85
2019-02-16T14:00:25.262Z,39.42
2019-02-16T14:02:58.099Z,38.70
2019-02-16T14:05:34.611Z,38.25
2019-02-16T14:08:16.606Z,39.23
2019-02-16T14:10:52.817Z,41.42
2019-02-16T14:13:33.294Z,43.87
2019-02-16T14:16:06.253Z,37.83
2019-02-16T14:18:38.069Z,72.58
2019-02-16T14:21:11.258Z,59.27
2019-02-16T14:23:44.776Z,42.27
2019-02-16T14:26:16.084Z,55.33
2019-02-16T14:28:48.549Z,64.12
2019-02-16T14:31:28.089Z,69.72
2019-02-16T14:33:52.996Z,43.08
2019-02-16T14:36:24.346Z,62.80
2019-02-16T14:39:03.390Z,43.50
2019-02-16T14:41:34.634Z,36.80
2019-02-16T14:44:05.967Z,34.10
2019-02-16T14:46:37.470Z,34.90
2019-02-16T14:49:08.685Z,34.88
2019-02-16T14:51:41.008Z,35.50
2019-02-16T14:54:12.690Z,36.95
2019-02-16T14:56:44.414Z,34.83
2019-02-16T14:59:15.722Z,37.08
2019-02-16T15:01:48.607Z,37.65
2019-02-16T15:04:40.916Z,36.38
2019-02-16T15:07:09.499Z,37.83
2019-02-16T15:09:40.827Z,34.30
2019-02-16T15:12:13.065Z,34.85
2019-02-16T15:14:44.227Z,33.25
2019-02-16T15:17:15.485Z,34.23
2019-02-16T15:19:46.743Z,35.45
2019-02-16T15:22:18.027Z,36.50
2019-02-16T15:24:49.254Z,34.20
2019-02-16T15:27:20.664Z,32.58
2019-02-16T15:29:51.865Z,35.05
2019-02-16T15:32:23.049Z,37.50
2019-02-16T15:34:54.342Z,58.80
2019-02-16T15:37:25.636Z,86.00
2019-02-16T15:39:56.897Z,73.97
2019-02-16T15:42:28.306Z,60.80
2019-02-16T15:44:59.686Z,60.57
2019-02-16T15:47:31.048Z,50.60
2019-02-16T15:50:02.469Z,41.70
2019-02-16T15:52:34.349Z,46.63
2019-02-16T15:55:07.527Z,39.73
2019-02-16T15:57:38.824Z,47.13
2019-02-16T16:00:16.600Z,43.23
2019-02-16T16:02:48.099Z,39.70
2019-02-16T16:05:19.398Z,44.03
2019-02-16T16:07:52.156Z,44.33
2019-02-16T16:10:30.849Z,46.07
2019-02-16T16:13:03.720Z,44.23
2019-02-16T16:15:42.280Z,38.67
2019-02-16T16:18:20.305Z,39.23
2019-02-16T16:20:59.307Z,46.03
2019-02-16T16:23:38.031Z,53.93
2019-02-16T16:26:27.077Z,49.07
2019-02-16T16:29:18.324Z,51.43
2019-02-16T16:31:51.253Z,53.77
2019-02-16T16:34:24.335Z,71.60
2019-02-16T16:37:08.609Z,88.13
2019-02-16T16:39:43.982Z,56.53
2019-02-16T16:42:28.721Z,67.10
2019-02-16T16:45:19.421Z,53.87
2019-02-16T16:47:55.678Z,48.60
2019-02-16T16:50:31.509Z,49.30
2019-02-16T16:53:07.483Z,48.00
2019-02-16T16:55:43.347Z,41.20
2019-02-16T16:58:25.404Z,50.97
2019-02-16T17:01:10.357Z,45.37
2019-02-16T17:03:43.279Z,41.90
2019-02-16T17:06:20.169Z,48.23
2019-02-16T17:09:09.577Z,46.47
2019-02-16T17:11:54.637Z,40.07
2019-02-16T17:14:39.147Z,38.83
2019-02-16T17:17:20.771Z,36.30
2019-02-16T17:19:53.693Z,36.10
2019-02-16T17:22:43.101Z,39.33
2019-02-16T17:25:32.122Z,44.33
2019-02-16T17:28:07.818Z,45.73
2019-02-16T17:30:40.623Z,48.87
2019-02-16T17:33:31.502Z,43.77
2019-02-16T17:36:05.676Z,76.70
2019-02-16T17:38:38.676Z,71.97
2019-02-16T17:41:17.738Z,44.40
2019-02-16T17:43:50.641Z,46.27
2019-02-16T17:46:29.333Z,42.83
2019-02-16T17:49:08.270Z,35.33
2019-02-16T17:51:59.380Z,32.53
2019-02-16T17:54:35.002Z,35.37
2019-02-16T17:57:07.749Z,35.30
2019-02-16T17:59:57.262Z,40.13
2019-02-16T18:02:32.699Z,35.30
2019-02-16T18:05:15.413Z,62.30
2019-02-16T18:08:04.779Z,58.03
2019-02-16T18:10:40.472Z,49.47
2019-02-16T18:13:22.420Z,50.63
2019-02-16T18:16:04.386Z,42.20
2019-02-16T18:18:43.299Z,43.27
2019-02-16T18:21:18.780Z,40.53
2019-02-16T18:23:54.629Z,39.90
2019-02-16T18:26:27.922Z,41.03
2019-02-16T18:29:00.811Z,42.63
2019-02-16T18:31:33.790Z,39.37
2019-02-16T18:34:06.691Z,41.43
2019-02-16T18:36:48.812Z,38.53
2019-02-16T18:39:21.753Z,37.23
2019-02-16T18:41:55.770Z,37.73
2019-02-16T18:44:46.926Z,38.17
2019-02-16T18:47:23.447Z,34.40
2019-02-16T18:50:08.442Z,37.93
2019-02-16T18:52:42.559Z,36.27
2019-02-16T18:55:17.651Z,35.10
2019-02-16T18:57:53.624Z,33.87
2019-02-16T19:00:38.412Z,35.97
2019-02-16T19:03:29.793Z,35.93
2019-02-16T19:06:02.668Z,38.20
2019-02-16T19:08:35.714Z,39.17
2019-02-16T19:11:25.728Z,37.43
2019-02-16T19:14:16.857Z,38.27
2019-02-16T19:17:07.684Z,44.53
2019-02-16T19:19:44.714Z,58.63
2019-02-16T19:22:38.607Z,66.77
2019-02-16T19:25:11.934Z,62.43
2019-02-16T19:27:50.529Z,35.73
2019-02-16T19:30:38.184Z,40.70
2019-02-16T19:33:17.168Z,39.47
2019-02-16T19:35:55.796Z,42.43
2019-02-16T19:38:28.747Z,40.90
2019-02-16T19:41:04.447Z,42.23
2019-02-16T19:43:52.257Z,42.67
2019-02-16T19:46:24.950Z,38.83
2019-02-16T19:49:05.187Z,42.80
2019-02-16T19:51:40.810Z,44.33
2019-02-16T19:54:19.283Z,55.03
2019-02-16T19:56:58.493Z,51.50
2019-02-16T19:59:31.250Z,53.70
2019-02-16T20:02:20.091Z,53.20
2019-02-16T20:04:53.003Z,51.00
2019-02-16T20:07:34.653Z,60.20
2019-02-16T20:10:09.770Z,58.67
2019-02-16T20:12:43.809Z,61.30
2019-02-16T20:15:31.584Z,60.90
2019-02-16T20:18:13.132Z,60.93
2019-02-16T20:20:54.871Z,65.57
2019-02-16T20:23:31.299Z,64.13
2019-02-16T20:26:20.548Z,69.33
2019-02-16T20:28:56.559Z,65.83
2019-02-16T20:31:32.292Z,71.63
2019-02-16T20:34:13.159Z,64.77
2019-02-16T20:36:46.696Z,65.50
2019-02-16T20:39:31.861Z,67.00
2019-02-16T20:42:18.209Z,74.40
2019-02-16T20:44:51.145Z,77.50
2019-02-16T20:47:23.971Z,83.27
2019-02-16T20:49:59.738Z,95.10
2019-02-16T20:52:48.592Z,92.47
2019-02-16T20:55:24.541Z,101.93
2019-02-16T20:57:57.497Z,98.90
2019-02-16T21:00:30.336Z,95.23
2019-02-16T21:03:06.399Z,91.43
2019-02-16T21:05:57.082Z,90.90
2019-02-16T21:08:36.135Z,107.57
2019-02-16T21:11:26.390Z,115.77
2019-02-16T21:14:06.592Z,116.70
2019-02-16T21:16:55.752Z,123.90
2019-02-16T21:19:28.634Z,132.07
2019-02-16T21:22:01.361Z,191.47
2019-02-16T21:24:50.749Z,176.13
2019-02-16T21:27:23.514Z,196.47
2019-02-16T21:30:08.474Z,211.40
2019-02-16T21:32:41.446Z,199.97
2019-02-16T21:35:23.296Z,225.93
2019-02-16T21:37:56.272Z,216.80
2019-02-16T21:40:32.183Z,213.83
2019-02-16T21:43:17.043Z,200.67
2019-02-16T21:45:55.976Z,189.57
2019-02-16T21:48:40.826Z,176.70
2019-02-16T21:51:42.682Z,177.00
2019-02-16T21:54:18.427Z,174.63
2019-02-16T21:56:51.285Z,189.73
2019-02-16T21:59:40.484Z,187.83
2019-02-16T22:02:13.224Z,178.03
2019-02-16T22:04:48.988Z,188.53
2019-02-16T22:07:33.880Z,246.33
2019-02-16T22:10:10.603Z,248.87
2019-02-16T22:12:59.606Z,247.10
2019-02-16T22:15:31.878Z,268.80
2019-02-16T22:18:04.192Z,377.47
2019-02-16T22:20:35.590Z,427.53
2019-02-16T22:23:06.840Z,323.10
2019-02-16T22:25:38.261Z,277.23
2019-02-16T22:28:18.254Z,248.50
2019-02-16T22:30:42.364Z,293.57
2019-02-16T22:33:13.935Z,274.43
2019-02-16T22:35:45.254Z,268.47
2019-02-16T22:38:16.534Z,222.83
2019-02-16T22:40:47.791Z,235.13
2019-02-16T22:43:18.947Z,242.77
2019-02-16T22:45:51.629Z,217.63
2019-02-16T22:48:22.805Z,488.27
2019-02-16T22:50:54.964Z,498.90
2019-02-16T22:53:26.202Z,439.77
2019-02-16T22:55:57.505Z,400.53
2019-02-16T22:58:29.374Z,474.97
2019-02-16T23:01:00.862Z,454.27
2019-02-16T23:03:33.744Z,438.23
2019-02-16T23:06:05.408Z,489.33
2019-02-16T23:08:38.118Z,518.40
2019-02-16T23:11:09.454Z,576.33
2019-02-16T23:13:40.736Z,540.83
2019-02-16T23:16:13.799Z,632.23
2019-02-16T23:18:45.081Z,604.50
2019-02-16T23:21:17.871Z,629.87
2019-02-16T23:23:49.272Z,578.27
2019-02-16T23:26:20.593Z,536.10
2019-02-16T23:28:52.008Z,511.50
2019-02-16T23:31:23.292Z,422.57
2019-02-16T23:33:54.691Z,469.53
2019-02-16T23:36:26.044Z,459.67
2019-02-16T23:38:57.430Z,444.33
2019-02-16T23:41:30.179Z,443.67
2019-02-16T23:44:01.473Z,397.73
2019-02-16T23:46:32.890Z,318.53
2019-02-16T23:49:04.283Z,313.33
2019-02-16T23:51:35.581Z,249.37
2019-02-16T23:54:06.931Z,330.77
2019-02-16T23:56:38.283Z,299.07
2019-02-16T23:59:09.525Z,271.37
